createdAt,value
2023-01-12T00:00:29.657Z,4.87
2023-01-12T00:01:32.032Z,4.85
2023-01-12T00:02:34.013Z,4.87
2023-01-12T00:03:35.823Z,4.77
2023-01-12T00:04:37.862Z,4.74
2023-01-12T00:05:39.679Z,4.74
2023-01-12T00:06:42.083Z,4.76
2023-01-12T00:07:43.918Z,4.76
2023-01-12T00:08:46.344Z,4.79
2023-01-12T00:09:48.318Z,4.82
2023-01-12T00:10:50.086Z,4.86
2023-01-12T00:11:51.872Z,4.86
2023-01-12T00:12:53.706Z,4.89
2023-01-12T00:13:55.531Z,4.91
2023-01-12T00:14:57.352Z,4.93
2023-01-12T00:16:21.680Z,4.95
2023-01-12T00:17:23.489Z,4.92
2023-01-12T00:18:25.258Z,4.91
2023-01-12T00:19:27.060Z,4.93
2023-01-12T00:20:28.972Z,4.96
2023-01-12T00:21:35.955Z,4.98
2023-01-12T00:22:37.808Z,5.02
2023-01-12T00:23:39.805Z,5.04
2023-01-12T00:24:44.180Z,5.04
2023-01-12T00:25:50.615Z,5.05
2023-01-12T00:26:53.044Z,5.04
2023-01-12T00:27:54.975Z,5.01
2023-01-12T00:28:56.775Z,4.99
2023-01-12T00:29:58.622Z,4.99
2023-01-12T00:31:01.316Z,4.97
2023-01-12T00:32:04.679Z,4.97
2023-01-12T00:33:06.509Z,4.99
2023-01-12T00:34:08.452Z,5.03
2023-01-12T00:35:10.284Z,5.04
2023-01-12T00:36:14.113Z,5.06
2023-01-12T00:37:16.148Z,5.07
2023-01-12T00:38:18.722Z,5.06
2023-01-12T00:39:21.724Z,5.06
2023-01-12T00:40:23.590Z,5.05
2023-01-12T00:41:43.892Z,5.05
2023-01-12T00:43:04.285Z,5.08
2023-01-12T00:44:24.733Z,5.11
2023-01-12T00:45:26.651Z,5.13
2023-01-12T00:46:33.733Z,5.13
2023-01-12T00:47:35.684Z,5.12
2023-01-12T00:48:37.516Z,5.11
2023-01-12T00:49:41.348Z,5.13
2023-01-12T00:50:43.223Z,5.14
2023-01-12T00:51:45.059Z,5.16
2023-01-12T00:52:46.842Z,5.14
2023-01-12T00:53:48.661Z,5.13
2023-01-12T00:54:50.467Z,5.11
2023-01-12T00:55:52.397Z,5.08
2023-01-12T00:56:54.208Z,5.05
2023-01-12T00:57:56.973Z,5.03
2023-01-12T00:58:58.837Z,4.99
2023-01-12T01:00:00.666Z,4.96
2023-01-12T01:01:09.088Z,4.95
2023-01-12T01:02:11.909Z,4.94
2023-01-12T01:03:13.713Z,4.93
2023-01-12T01:04:15.587Z,4.93
2023-01-12T01:05:18.192Z,4.92
2023-01-12T01:06:20.008Z,4.90
2023-01-12T01:07:24.637Z,4.91
2023-01-12T01:08:26.442Z,4.94
2023-01-12T01:09:28.358Z,4.98
2023-01-12T01:10:30.175Z,4.99
2023-01-12T01:11:32.474Z,4.98
2023-01-12T01:12:34.355Z,4.99
2023-01-12T01:13:41.064Z,4.97
2023-01-12T01:14:42.992Z,4.96
2023-01-12T01:15:44.803Z,4.98
2023-01-12T01:16:46.693Z,4.99
2023-01-12T01:17:48.567Z,5.03
2023-01-12T01:18:50.455Z,5.05
2023-01-12T01:19:52.286Z,5.04
2023-01-12T01:20:54.252Z,5.02
2023-01-12T01:21:56.009Z,5.04
2023-01-12T01:22:57.821Z,5.05
2023-01-12T01:23:59.987Z,5.06
2023-01-12T01:25:02.096Z,5.02
2023-01-12T01:26:08.363Z,4.99
2023-01-12T01:27:10.145Z,4.96
2023-01-12T01:28:11.936Z,4.96
2023-01-12T01:29:14.015Z,4.97
2023-01-12T01:30:16.049Z,4.97
2023-01-12T01:31:20.677Z,4.97
2023-01-12T01:32:22.508Z,4.93
2023-01-12T01:33:24.272Z,4.95
2023-01-12T01:34:26.173Z,4.96
2023-01-12T01:35:28.015Z,5.00
2023-01-12T01:36:29.811Z,5.00
2023-01-12T01:37:31.715Z,5.01
2023-01-12T01:38:34.101Z,5.02
2023-01-12T01:39:36.133Z,4.96
2023-01-12T01:40:42.266Z,4.94
2023-01-12T01:41:44.136Z,4.93
2023-01-12T01:42:46.027Z,4.91
2023-01-12T01:44:01.503Z,4.93
2023-01-12T01:45:04.801Z,4.97
2023-01-12T01:46:09.516Z,4.97
2023-01-12T01:47:17.546Z,4.99
2023-01-12T01:48:19.546Z,5.04
2023-01-12T01:49:27.562Z,5.06
2023-01-12T01:50:35.673Z,5.07
2023-01-12T01:51:37.538Z,5.10
2023-01-12T01:52:42.013Z,5.10
2023-01-12T01:53:45.694Z,5.12
2023-01-12T01:54:52.556Z,5.15
2023-01-12T01:55:59.378Z,5.16
2023-01-12T01:57:01.358Z,5.16
2023-01-12T01:58:14.975Z,5.17
2023-01-12T01:59:21.113Z,5.14
2023-01-12T02:00:24.259Z,5.12
2023-01-12T02:01:26.790Z,5.12
2023-01-12T02:02:28.983Z,5.10
2023-01-12T02:03:34.051Z,5.05
2023-01-12T02:04:38.432Z,4.98
2023-01-12T02:05:42.079Z,4.92
2023-01-12T02:06:44.317Z,4.87
2023-01-12T02:07:46.655Z,4.85
2023-01-12T02:08:48.360Z,4.87
2023-01-12T02:09:50.151Z,4.90
2023-01-12T02:10:52.590Z,4.90
2023-01-12T02:12:13.663Z,4.94
2023-01-12T02:13:34.268Z,4.98
2023-01-12T02:14:54.342Z,4.99
2023-01-12T02:16:21.378Z,5.01
2023-01-12T02:17:26.163Z,5.05
2023-01-12T02:18:33.502Z,5.09
2023-01-12T02:19:35.248Z,5.12
2023-01-12T02:20:48.747Z,5.13
2023-01-12T02:21:53.223Z,5.14
2023-01-12T02:23:13.353Z,5.15
2023-01-12T02:24:21.334Z,5.16
2023-01-12T02:25:29.277Z,5.16
2023-01-12T02:26:49.736Z,5.17
2023-01-12T02:28:14.156Z,5.17
2023-01-12T02:29:21.676Z,5.18
2023-01-12T02:30:23.428Z,5.16
2023-01-12T02:31:43.633Z,5.18
2023-01-12T02:32:45.410Z,5.18
2023-01-12T02:33:58.966Z,5.19
2023-01-12T02:35:09.589Z,5.16
2023-01-12T02:36:31.572Z,5.13
2023-01-12T02:37:42.402Z,5.11
2023-01-12T02:38:44.122Z,5.09
2023-01-12T02:40:02.137Z,5.11
2023-01-12T02:41:10.009Z,5.12
2023-01-12T02:42:30.219Z,5.06
2023-01-12T02:43:33.866Z,5.01
2023-01-12T02:44:54.024Z,5.03
2023-01-12T02:45:55.892Z,5.02
2023-01-12T02:46:58.914Z,4.94
2023-01-12T02:48:15.481Z,4.87
2023-01-12T02:49:19.241Z,4.78
2023-01-12T02:50:32.477Z,4.75
2023-01-12T02:51:52.535Z,4.75
2023-01-12T02:52:58.049Z,4.77
2023-01-12T02:54:02.041Z,4.80
2023-01-12T02:55:05.029Z,4.82
2023-01-12T02:56:08.164Z,4.83
2023-01-12T02:57:11.286Z,4.87
2023-01-12T02:58:15.042Z,4.92
2023-01-12T02:59:36.994Z,4.95
2023-01-12T03:00:40.502Z,5.00
2023-01-12T03:01:43.920Z,5.04
2023-01-12T03:02:45.918Z,5.03
2023-01-12T03:03:49.097Z,4.99
2023-01-12T03:04:51.228Z,5.00
2023-01-12T03:05:55.649Z,5.01
2023-01-12T03:06:57.401Z,5.03
2023-01-12T03:08:00.649Z,5.06
2023-01-12T03:09:02.463Z,5.06
2023-01-12T03:10:13.607Z,5.05
2023-01-12T03:11:16.782Z,4.98
2023-01-12T03:12:21.344Z,4.96
2023-01-12T03:13:24.150Z,4.91
2023-01-12T03:14:27.551Z,4.93
2023-01-12T03:15:29.936Z,4.96
2023-01-12T03:16:34.835Z,4.91
2023-01-12T03:17:40.849Z,4.87
2023-01-12T03:18:51.264Z,4.88
2023-01-12T03:19:54.711Z,4.89
2023-01-12T03:21:00.327Z,4.91
2023-01-12T03:22:08.071Z,4.93
2023-01-12T03:23:13.025Z,4.93
2023-01-12T03:24:16.061Z,4.96
2023-01-12T03:25:18.714Z,4.92
2023-01-12T03:26:23.505Z,4.88
2023-01-12T03:27:28.547Z,4.86
2023-01-12T03:28:34.918Z,4.87
2023-01-12T03:29:41.347Z,4.91
2023-01-12T03:30:50.363Z,4.90
2023-01-12T03:31:52.739Z,4.90
2023-01-12T03:32:54.554Z,4.93
2023-01-12T03:33:56.369Z,4.95
2023-01-12T03:34:59.048Z,4.98
2023-01-12T03:36:07.031Z,5.01
2023-01-12T03:37:08.897Z,5.04
2023-01-12T03:38:24.929Z,5.06
2023-01-12T03:39:26.758Z,5.08
2023-01-12T03:40:32.805Z,5.03
2023-01-12T03:41:56.688Z,5.02
2023-01-12T03:42:58.611Z,4.99
2023-01-12T03:44:04.096Z,4.96
2023-01-12T03:45:30.615Z,4.96
2023-01-12T03:46:36.882Z,4.98
2023-01-12T03:47:40.981Z,4.97
2023-01-12T03:48:58.500Z,4.97
2023-01-12T03:50:06.572Z,4.98
2023-01-12T03:51:40.628Z,5.04
2023-01-12T03:52:43.509Z,5.00
2023-01-12T03:53:49.534Z,5.00
2023-01-12T03:54:52.359Z,5.00
2023-01-12T03:55:56.643Z,5.01
2023-01-12T03:56:58.646Z,5.02
2023-01-12T03:58:01.093Z,5.03
2023-01-12T03:59:03.703Z,5.02
2023-01-12T04:00:10.787Z,5.05
2023-01-12T04:01:13.066Z,5.07
2023-01-12T04:02:14.948Z,5.10
2023-01-12T04:03:17.146Z,5.12
2023-01-12T04:04:20.400Z,5.15
2023-01-12T04:05:22.367Z,5.16
2023-01-12T04:06:24.233Z,5.17
2023-01-12T04:07:26.158Z,5.19
2023-01-12T04:08:28.402Z,5.16
2023-01-12T04:09:30.279Z,5.13
2023-01-12T04:10:32.285Z,5.03
2023-01-12T04:11:52.752Z,4.92
2023-01-12T04:12:54.592Z,4.92
2023-01-12T04:13:56.931Z,4.91
2023-01-12T04:14:59.341Z,4.88
2023-01-12T04:16:01.167Z,4.88
2023-01-12T04:17:02.970Z,4.90
2023-01-12T04:18:05.157Z,4.90
2023-01-12T04:19:07.002Z,4.92
2023-01-12T04:20:09.857Z,4.94
2023-01-12T04:21:31.698Z,4.96
2023-01-12T04:22:45.570Z,4.93
2023-01-12T04:23:47.386Z,4.94
2023-01-12T04:24:49.387Z,4.97
2023-01-12T04:25:51.209Z,5.00
2023-01-12T04:26:53.010Z,5.05
2023-01-12T04:28:02.663Z,5.05
2023-01-12T04:29:04.573Z,5.02
2023-01-12T04:30:06.991Z,5.00
2023-01-12T04:31:09.826Z,5.04
2023-01-12T04:32:12.122Z,5.08
2023-01-12T04:33:14.043Z,5.09
2023-01-12T04:34:15.828Z,5.09
2023-01-12T04:35:17.922Z,5.07
2023-01-12T04:36:19.798Z,5.08
2023-01-12T04:37:21.867Z,5.10
2023-01-12T04:38:23.824Z,5.12
2023-01-12T04:39:25.574Z,5.12
2023-01-12T04:40:27.407Z,5.09
2023-01-12T04:41:29.208Z,5.08
2023-01-12T04:42:49.614Z,5.11
2023-01-12T04:43:51.456Z,5.13
2023-01-12T04:44:53.304Z,5.14
2023-01-12T04:45:55.291Z,5.13
2023-01-12T04:46:57.110Z,5.13
2023-01-12T04:48:05.961Z,5.03
2023-01-12T04:49:07.957Z,4.95
2023-01-12T04:50:10.049Z,4.93
2023-01-12T04:51:12.360Z,4.97
2023-01-12T04:52:14.190Z,5.03
2023-01-12T04:53:16.453Z,5.07
2023-01-12T04:54:18.360Z,5.09
2023-01-12T04:55:20.263Z,5.08
2023-01-12T04:56:22.120Z,5.02
2023-01-12T04:57:24.497Z,5.02
2023-01-12T04:58:26.307Z,5.03
2023-01-12T04:59:29.519Z,4.97
2023-01-12T05:00:31.349Z,4.93
2023-01-12T05:01:33.473Z,4.90
2023-01-12T05:02:35.372Z,4.87
2023-01-12T05:03:37.375Z,4.82
2023-01-12T05:04:39.269Z,4.85
2023-01-12T05:05:41.559Z,4.89
2023-01-12T05:06:43.439Z,4.91
2023-01-12T05:08:03.713Z,4.94
2023-01-12T05:09:24.002Z,4.95
2023-01-12T05:10:25.841Z,4.97
2023-01-12T05:11:28.774Z,4.99
2023-01-12T05:12:30.729Z,4.99
2023-01-12T05:13:32.523Z,4.97
2023-01-12T05:14:34.370Z,4.98
2023-01-12T05:15:36.161Z,4.98
2023-01-12T05:16:38.143Z,4.98
2023-01-12T05:17:40.049Z,4.99
2023-01-12T05:18:42.586Z,4.98
2023-01-12T05:19:44.377Z,5.01
2023-01-12T05:20:46.260Z,4.99
2023-01-12T05:21:48.153Z,4.94
2023-01-12T05:22:51.924Z,4.91
2023-01-12T05:23:53.834Z,4.85
2023-01-12T05:24:55.846Z,4.86
2023-01-12T05:26:01.254Z,4.85
2023-01-12T05:27:03.117Z,4.86
2023-01-12T05:28:05.219Z,4.83
2023-01-12T05:29:07.054Z,4.82
2023-01-12T05:30:09.230Z,4.84
2023-01-12T05:31:12.020Z,4.86
2023-01-12T05:32:13.948Z,4.89
2023-01-12T05:33:16.763Z,4.91
2023-01-12T05:34:20.069Z,4.92
2023-01-12T05:35:21.997Z,4.91
2023-01-12T05:36:26.367Z,4.92
2023-01-12T05:37:29.272Z,4.90
2023-01-12T05:38:31.306Z,4.84
2023-01-12T05:39:33.287Z,4.77
2023-01-12T05:40:35.076Z,4.70
2023-01-12T05:41:36.898Z,4.69
2023-01-12T05:42:57.395Z,4.67
2023-01-12T05:43:59.232Z,4.67
2023-01-12T05:45:01.050Z,4.68
2023-01-12T05:46:05.947Z,4.67
2023-01-12T05:47:07.724Z,4.66
2023-01-12T05:48:09.971Z,4.64
2023-01-12T05:49:11.895Z,4.64
2023-01-12T05:50:13.694Z,4.67
2023-01-12T05:51:16.074Z,4.69
2023-01-12T05:52:17.868Z,4.68
2023-01-12T05:53:19.775Z,4.67
2023-01-12T05:54:21.779Z,4.67
2023-01-12T05:55:23.704Z,4.70
2023-01-12T05:56:26.779Z,4.71
2023-01-12T05:57:32.030Z,4.73
2023-01-12T05:58:34.258Z,4.78
2023-01-12T05:59:36.396Z,4.80
2023-01-12T06:00:38.194Z,4.83
2023-01-12T06:01:41.063Z,4.83
2023-01-12T06:02:42.959Z,4.83
2023-01-12T06:03:48.315Z,4.81
2023-01-12T06:04:50.320Z,4.78
2023-01-12T06:05:52.982Z,4.72
2023-01-12T06:06:54.845Z,4.72
2023-01-12T06:07:56.635Z,4.72
2023-01-12T06:08:59.317Z,4.70
2023-01-12T06:10:01.211Z,4.72
2023-01-12T06:11:03.463Z,4.73
2023-01-12T06:12:24.400Z,4.76
2023-01-12T06:13:44.634Z,4.79
2023-01-12T06:14:46.478Z,4.81
2023-01-12T06:15:48.240Z,4.84
2023-01-12T06:16:50.093Z,4.80
2023-01-12T06:17:51.907Z,4.77
2023-01-12T06:18:53.692Z,4.76
2023-01-12T06:19:55.476Z,4.75
2023-01-12T06:20:59.835Z,4.74
2023-01-12T06:22:01.622Z,4.74
2023-01-12T06:23:05.320Z,4.72
2023-01-12T06:24:07.284Z,4.73
2023-01-12T06:25:09.382Z,4.73
2023-01-12T06:26:12.372Z,4.70
2023-01-12T06:27:14.188Z,4.68
2023-01-12T06:28:16.944Z,4.68
2023-01-12T06:29:18.881Z,4.71
2023-01-12T06:30:20.822Z,4.74
2023-01-12T06:31:22.701Z,4.75
2023-01-12T06:32:24.540Z,4.72
2023-01-12T06:33:26.955Z,4.71
2023-01-12T06:34:34.939Z,4.66
2023-01-12T06:35:36.846Z,4.66
2023-01-12T06:36:39.212Z,4.68
2023-01-12T06:37:41.165Z,4.70
2023-01-12T06:38:43.574Z,4.75
2023-01-12T06:39:45.328Z,4.77
2023-01-12T06:40:47.285Z,4.81
2023-01-12T06:42:07.775Z,4.82
2023-01-12T06:43:09.666Z,4.85
2023-01-12T06:44:11.498Z,4.88
2023-01-12T06:45:13.213Z,4.90
2023-01-12T06:46:15.115Z,4.90
2023-01-12T06:47:17.085Z,4.89
2023-01-12T06:48:21.515Z,4.86
2023-01-12T06:49:23.416Z,4.81
2023-01-12T06:50:25.411Z,4.81
2023-01-12T06:51:27.379Z,4.78
2023-01-12T06:52:30.380Z,4.67
2023-01-12T06:53:32.314Z,4.61
2023-01-12T06:54:34.104Z,4.57
2023-01-12T06:55:35.947Z,4.53
2023-01-12T06:56:37.810Z,4.50
2023-01-12T06:57:39.585Z,4.46
2023-01-12T06:58:45.065Z,4.47
2023-01-12T06:59:46.880Z,4.49
2023-01-12T07:00:48.828Z,4.48
2023-01-12T07:01:51.006Z,4.43
2023-01-12T07:02:53.070Z,4.42
2023-01-12T07:03:54.957Z,4.38
2023-01-12T07:04:56.790Z,4.37
2023-01-12T07:05:59.691Z,4.37
2023-01-12T07:07:01.546Z,4.37
2023-01-12T07:08:03.428Z,4.42
2023-01-12T07:09:06.795Z,4.43
2023-01-12T07:10:09.521Z,4.44
2023-01-12T07:11:15.355Z,4.45
2023-01-12T07:12:17.235Z,4.49
2023-01-12T07:13:19.150Z,4.48
2023-01-12T07:14:21.150Z,4.52
2023-01-12T07:15:23.640Z,4.54
2023-01-12T07:16:25.496Z,4.55
2023-01-12T07:17:27.371Z,4.57
2023-01-12T07:18:29.687Z,4.54
2023-01-12T07:19:31.719Z,4.50
2023-01-12T07:20:33.659Z,4.46
2023-01-12T07:21:35.567Z,4.45
2023-01-12T07:22:37.586Z,4.46
2023-01-12T07:23:42.351Z,4.48
2023-01-12T07:24:44.433Z,4.49
2023-01-12T07:25:46.263Z,4.51
2023-01-12T07:26:50.031Z,4.49
2023-01-12T07:27:55.756Z,4.47
2023-01-12T07:28:57.574Z,4.50
2023-01-12T07:30:01.796Z,4.51
2023-01-12T07:31:04.620Z,4.55
2023-01-12T07:32:06.819Z,4.60
2023-01-12T07:33:09.405Z,4.65
2023-01-12T07:34:12.021Z,4.69
2023-01-12T07:35:14.026Z,4.73
2023-01-12T07:36:16.675Z,4.77
2023-01-12T07:37:18.473Z,4.76
2023-01-12T07:38:20.273Z,4.78
2023-01-12T07:39:22.108Z,4.79
2023-01-12T07:40:24.005Z,4.74
2023-01-12T07:41:46.026Z,4.71
2023-01-12T07:42:47.889Z,4.68
2023-01-12T07:43:49.732Z,4.70
2023-01-12T07:44:51.704Z,4.71
2023-01-12T07:45:56.061Z,4.72
2023-01-12T07:46:59.743Z,4.74
2023-01-12T07:48:01.716Z,4.79
2023-01-12T07:49:03.613Z,4.82
2023-01-12T07:50:05.640Z,4.85
2023-01-12T07:51:07.617Z,4.87
2023-01-12T07:52:11.553Z,4.87
2023-01-12T07:53:13.334Z,4.86
2023-01-12T07:54:15.271Z,4.88
2023-01-12T07:55:19.298Z,4.91
2023-01-12T07:56:21.242Z,4.92
2023-01-12T07:57:23.021Z,4.94
2023-01-12T07:58:24.775Z,4.93
2023-01-12T07:59:27.772Z,4.94
2023-01-12T08:00:30.428Z,4.92
2023-01-12T08:01:33.368Z,4.89
2023-01-12T08:02:35.412Z,4.90
2023-01-12T08:03:38.717Z,4.93
2023-01-12T08:04:40.597Z,4.97
2023-01-12T08:05:42.456Z,5.00
2023-01-12T08:06:44.290Z,5.04
2023-01-12T08:07:46.272Z,5.07
2023-01-12T08:08:48.068Z,5.11
2023-01-12T08:09:49.972Z,5.09
2023-01-12T08:10:51.869Z,5.11
2023-01-12T08:11:53.750Z,5.12
2023-01-12T08:12:55.550Z,5.11
2023-01-12T08:13:58.665Z,5.13
2023-01-12T08:15:00.850Z,5.14
2023-01-12T08:16:07.207Z,5.18
2023-01-12T08:17:15.214Z,5.16
2023-01-12T08:18:20.286Z,5.14
2023-01-12T08:19:24.855Z,5.11
2023-01-12T08:20:32.438Z,5.09
2023-01-12T08:21:45.408Z,5.09
2023-01-12T08:22:49.647Z,5.12
2023-01-12T08:23:54.803Z,5.10
2023-01-12T08:25:00.242Z,5.09
2023-01-12T08:26:05.122Z,5.06
2023-01-12T08:27:07.652Z,5.04
2023-01-12T08:28:09.590Z,4.97
2023-01-12T08:29:16.602Z,4.93
2023-01-12T08:30:20.064Z,4.91
2023-01-12T08:31:25.215Z,4.94
2023-01-12T08:32:28.537Z,4.96
2023-01-12T08:33:30.451Z,5.00
2023-01-12T08:34:32.940Z,5.05
2023-01-12T08:35:35.771Z,5.06
2023-01-12T08:36:38.146Z,5.10
2023-01-12T08:37:40.089Z,5.09
2023-01-12T08:38:41.977Z,5.12
2023-01-12T08:39:44.005Z,5.16
2023-01-12T08:41:04.653Z,5.14
2023-01-12T08:42:06.519Z,5.12
2023-01-12T08:43:08.404Z,5.16
2023-01-12T08:44:11.507Z,5.22
2023-01-12T08:45:13.243Z,5.23
2023-01-12T08:46:15.335Z,5.25
2023-01-12T08:47:27.633Z,5.23
2023-01-12T08:48:29.419Z,5.24
2023-01-12T08:49:31.899Z,5.28
2023-01-12T08:50:33.663Z,5.32
2023-01-12T08:51:35.592Z,5.36
2023-01-12T08:52:37.625Z,5.38
2023-01-12T08:53:39.439Z,5.41
2023-01-12T08:54:41.299Z,5.47
2023-01-12T08:55:43.471Z,5.41
2023-01-12T08:56:45.901Z,5.34
2023-01-12T08:57:47.651Z,5.34
2023-01-12T08:58:49.740Z,5.38
2023-01-12T08:59:51.648Z,5.41
2023-01-12T09:00:53.615Z,5.48
2023-01-12T09:01:55.774Z,5.50
2023-01-12T09:02:57.563Z,5.53
2023-01-12T09:04:00.172Z,5.52
2023-01-12T09:05:02.020Z,5.58
2023-01-12T09:06:20.543Z,5.61
2023-01-12T09:07:22.478Z,5.66
2023-01-12T09:08:24.241Z,5.67
2023-01-12T09:09:26.124Z,5.69
2023-01-12T09:10:28.244Z,5.73
2023-01-12T09:11:31.050Z,5.77
2023-01-12T09:12:32.989Z,5.82
2023-01-12T09:13:34.756Z,5.86
2023-01-12T09:14:39.388Z,5.89
2023-01-12T09:15:43.171Z,5.88
2023-01-12T09:16:45.269Z,5.89
2023-01-12T09:17:52.203Z,5.91
2023-01-12T09:18:54.047Z,5.92
2023-01-12T09:19:55.850Z,5.92
2023-01-12T09:21:04.122Z,5.89
2023-01-12T09:22:05.956Z,5.84
2023-01-12T09:23:07.776Z,5.82
2023-01-12T09:24:10.831Z,5.86
2023-01-12T09:25:12.756Z,5.88
2023-01-12T09:26:16.244Z,5.87
2023-01-12T09:27:18.077Z,5.84
2023-01-12T09:28:19.852Z,5.88
2023-01-12T09:29:21.741Z,5.92
2023-01-12T09:30:23.653Z,5.97
2023-01-12T09:31:26.583Z,6.01
2023-01-12T09:32:36.132Z,6.04
2023-01-12T09:33:39.473Z,6.01
2023-01-12T09:34:41.418Z,6.01
2023-01-12T09:35:44.765Z,6.03
2023-01-12T09:36:46.910Z,6.05
2023-01-12T09:37:48.743Z,6.05
2023-01-12T09:38:50.574Z,6.05
2023-01-12T09:39:52.417Z,6.06
2023-01-12T09:40:54.202Z,6.04
2023-01-12T09:42:15.162Z,6.07
2023-01-12T09:43:35.300Z,6.11
2023-01-12T09:44:56.919Z,6.13
2023-01-12T09:46:17.052Z,6.13
2023-01-12T09:47:22.813Z,6.17
2023-01-12T09:48:25.636Z,6.20
2023-01-12T09:49:30.930Z,6.20
2023-01-12T09:50:37.734Z,6.23
2023-01-12T09:51:48.228Z,6.24
2023-01-12T09:52:56.865Z,6.27
2023-01-12T09:53:58.701Z,6.28
2023-01-12T09:55:00.699Z,6.23
2023-01-12T09:56:08.308Z,6.19
2023-01-12T09:57:28.863Z,6.18
2023-01-12T09:58:51.405Z,6.18
2023-01-12T10:00:03.222Z,6.17
2023-01-12T10:01:14.723Z,6.19
2023-01-12T10:02:22.577Z,6.20
2023-01-12T10:03:31.236Z,6.23
2023-01-12T10:04:33.182Z,6.25
2023-01-12T10:05:47.604Z,6.27
2023-01-12T10:06:49.400Z,6.28
2023-01-12T10:07:53.615Z,6.28
2023-01-12T10:08:57.168Z,6.29
2023-01-12T10:09:58.993Z,6.32
2023-01-12T10:11:12.248Z,6.35
2023-01-12T10:12:20.230Z,6.39
2023-01-12T10:13:22.645Z,6.40
2023-01-12T10:14:30.495Z,6.39
2023-01-12T10:15:41.345Z,6.42
2023-01-12T10:16:43.299Z,6.44
2023-01-12T10:17:57.024Z,6.46
2023-01-12T10:19:01.528Z,6.51
2023-01-12T10:20:13.978Z,6.56
2023-01-12T10:21:15.848Z,6.58
2023-01-12T10:22:37.661Z,6.61
2023-01-12T10:23:39.641Z,6.61
2023-01-12T10:24:42.321Z,6.61
2023-01-12T10:25:52.057Z,6.63
2023-01-12T10:27:03.719Z,6.65
2023-01-12T10:28:12.304Z,6.67
2023-01-12T10:29:14.237Z,6.68
2023-01-12T10:30:17.753Z,6.71
2023-01-12T10:31:21.207Z,6.72
2023-01-12T10:32:26.568Z,6.75
2023-01-12T10:33:31.618Z,6.77
2023-01-12T10:34:49.717Z,6.82
2023-01-12T10:35:51.630Z,6.84
2023-01-12T10:36:58.187Z,6.88
2023-01-12T10:38:00.046Z,6.88
2023-01-12T10:39:03.730Z,6.89
2023-01-12T10:40:05.933Z,6.94
2023-01-12T10:41:10.836Z,6.94
2023-01-12T10:42:41.447Z,6.93
2023-01-12T10:43:44.657Z,6.98
2023-01-12T10:44:46.458Z,7.00
2023-01-12T10:46:08.574Z,7.03
2023-01-12T10:47:11.020Z,7.01
2023-01-12T10:48:22.651Z,7.02
2023-01-12T10:49:24.817Z,7.06
2023-01-12T10:50:28.704Z,7.07
2023-01-12T10:51:33.968Z,7.06
2023-01-12T10:52:38.629Z,7.06
2023-01-12T10:53:55.974Z,7.07
2023-01-12T10:54:58.989Z,7.07
2023-01-12T10:56:03.350Z,7.08
2023-01-12T10:57:08.657Z,7.11
2023-01-12T10:58:24.428Z,7.11
2023-01-12T10:59:29.576Z,7.12
2023-01-12T11:00:31.913Z,7.13
2023-01-12T11:01:53.492Z,7.16
2023-01-12T11:02:55.649Z,7.08
2023-01-12T11:04:04.364Z,7.03
2023-01-12T11:05:26.098Z,7.04
2023-01-12T11:06:30.864Z,7.07
2023-01-12T11:07:33.569Z,7.12
2023-01-12T11:08:35.503Z,7.12
2023-01-12T11:09:37.545Z,7.13
2023-01-12T11:10:39.613Z,7.12
2023-01-12T11:11:41.586Z,7.11
2023-01-12T11:12:43.496Z,7.13
2023-01-12T11:13:45.424Z,7.12
2023-01-12T11:14:59.053Z,7.13
2023-01-12T11:16:15.955Z,7.13
2023-01-12T11:17:17.756Z,7.16
2023-01-12T11:18:32.794Z,7.14
2023-01-12T11:19:40.047Z,7.12
2023-01-12T11:20:50.570Z,7.14
2023-01-12T11:22:03.403Z,7.13
2023-01-12T11:23:09.248Z,7.15
2023-01-12T11:24:14.191Z,7.16
2023-01-12T11:25:21.946Z,7.17
2023-01-12T11:26:28.953Z,7.14
2023-01-12T11:27:50.936Z,7.14
2023-01-12T11:28:54.371Z,7.16
2023-01-12T11:29:58.957Z,7.16
2023-01-12T11:31:21.034Z,7.20
2023-01-12T11:32:29.477Z,7.26
2023-01-12T11:33:45.426Z,7.31
2023-01-12T11:35:09.978Z,7.32
2023-01-12T11:36:17.515Z,7.37
2023-01-12T11:37:19.338Z,7.39
2023-01-12T11:38:24.618Z,7.43
2023-01-12T11:39:28.238Z,7.44
2023-01-12T11:40:33.970Z,7.44
2023-01-12T11:41:39.405Z,7.44
2023-01-12T11:43:00.755Z,7.44
2023-01-12T11:44:05.643Z,7.46
2023-01-12T11:45:07.436Z,7.47
2023-01-12T11:46:15.336Z,7.48
2023-01-12T11:47:21.672Z,7.50
2023-01-12T11:48:55.756Z,7.49
2023-01-12T11:50:02.811Z,7.48
2023-01-12T11:51:05.156Z,7.49
2023-01-12T11:52:11.142Z,7.48
2023-01-12T11:53:20.578Z,7.49
2023-01-12T11:54:23.548Z,7.49
2023-01-12T11:55:35.270Z,7.50
2023-01-12T11:56:53.066Z,7.53
2023-01-12T11:57:55.811Z,7.55
2023-01-12T11:59:23.970Z,7.54
2023-01-12T12:00:44.403Z,7.56
2023-01-12T12:01:58.221Z,7.58
2023-01-12T12:03:06.339Z,7.59
2023-01-12T12:04:26.747Z,7.59
2023-01-12T12:05:28.537Z,7.60
2023-01-12T12:06:30.355Z,7.61
2023-01-12T12:07:44.168Z,7.57
2023-01-12T12:08:46.009Z,7.55
2023-01-12T12:10:06.595Z,7.57
2023-01-12T12:11:08.379Z,7.58
2023-01-12T12:12:16.427Z,7.57
2023-01-12T12:13:44.071Z,7.54
2023-01-12T12:14:48.685Z,7.53
2023-01-12T12:15:55.243Z,7.52
2023-01-12T12:17:03.886Z,7.51
2023-01-12T12:18:14.523Z,7.51
2023-01-12T12:19:18.898Z,7.51
2023-01-12T12:20:42.389Z,7.49
2023-01-12T12:21:50.309Z,7.50
2023-01-12T12:22:54.823Z,7.45
2023-01-12T12:23:59.574Z,7.43
2023-01-12T12:25:27.944Z,7.43
2023-01-12T12:26:36.061Z,7.40
2023-01-12T12:27:52.866Z,7.43
2023-01-12T12:28:57.721Z,7.40
2023-01-12T12:29:59.498Z,7.39
2023-01-12T12:31:14.354Z,7.37
2023-01-12T12:32:19.158Z,7.38
2023-01-12T12:33:24.087Z,7.39
2023-01-12T12:34:35.015Z,7.41
2023-01-12T12:35:49.123Z,7.37
2023-01-12T12:37:00.189Z,7.35
2023-01-12T12:38:22.874Z,7.36
2023-01-12T12:39:26.096Z,7.34
2023-01-12T12:41:01.977Z,7.32
2023-01-12T12:42:28.428Z,7.32
2023-01-12T12:43:52.757Z,7.32
2023-01-12T12:45:19.093Z,7.33
2023-01-12T12:46:30.758Z,7.33
2023-01-12T12:47:42.263Z,7.29
2023-01-12T12:48:50.375Z,7.27
2023-01-12T12:49:55.860Z,7.27
2023-01-12T12:51:00.619Z,7.25
2023-01-12T12:52:02.919Z,7.23
2023-01-12T12:53:07.699Z,7.23
2023-01-12T12:54:24.089Z,7.25
2023-01-12T12:55:27.315Z,7.26
2023-01-12T12:56:30.631Z,7.27
2023-01-12T12:57:32.485Z,7.27
2023-01-12T12:58:44.928Z,7.26
2023-01-12T13:00:04.944Z,7.27
2023-01-12T13:01:25.345Z,7.26
2023-01-12T13:02:37.756Z,7.26
2023-01-12T13:03:39.467Z,7.26
2023-01-12T13:04:44.023Z,7.26
2023-01-12T13:05:47.824Z,7.25
2023-01-12T13:06:50.089Z,7.24
2023-01-12T13:07:52.780Z,7.22
2023-01-12T13:08:59.059Z,7.22
2023-01-12T13:10:30.472Z,7.21
2023-01-12T13:11:59.326Z,7.22
2023-01-12T13:13:05.140Z,7.19
2023-01-12T13:14:18.689Z,7.18
2023-01-12T13:15:22.418Z,7.17
2023-01-12T13:16:27.855Z,7.16
2023-01-12T13:17:32.556Z,7.17
2023-01-12T13:18:42.597Z,7.18
2023-01-12T13:19:46.203Z,7.18
2023-01-12T13:20:53.423Z,7.18
2023-01-12T13:21:59.257Z,7.20
2023-01-12T13:23:01.702Z,7.20
2023-01-12T13:24:12.460Z,7.20
2023-01-12T13:25:16.907Z,7.19
2023-01-12T13:26:35.085Z,7.17
2023-01-12T13:28:00.991Z,7.17
2023-01-12T13:29:21.059Z,7.16
2023-01-12T13:30:28.941Z,7.14
2023-01-12T13:31:31.848Z,7.13
2023-01-12T13:32:35.866Z,7.13
2023-01-12T13:33:38.690Z,7.10
2023-01-12T13:34:46.612Z,7.09
2023-01-12T13:35:48.362Z,7.08
2023-01-12T13:37:13.384Z,7.09
2023-01-12T13:38:33.631Z,7.09
2023-01-12T13:39:37.584Z,7.10
2023-01-12T13:40:41.216Z,7.12
2023-01-12T13:42:02.252Z,7.13
2023-01-12T13:43:19.842Z,7.11
2023-01-12T13:44:39.350Z,7.12
2023-01-12T13:45:46.725Z,7.12
2023-01-12T13:46:51.543Z,7.11
2023-01-12T13:47:54.344Z,7.11
2023-01-12T13:48:57.141Z,7.10
2023-01-12T13:50:02.930Z,7.09
2023-01-12T13:51:04.827Z,7.08
2023-01-12T13:52:09.855Z,7.07
2023-01-12T13:53:19.425Z,7.06
2023-01-12T13:54:21.273Z,7.08
2023-01-12T13:55:26.235Z,7.07
2023-01-12T13:56:28.202Z,7.06
2023-01-12T13:57:31.195Z,7.06
2023-01-12T13:58:40.868Z,7.07
2023-01-12T13:59:55.448Z,7.07
2023-01-12T14:00:59.179Z,7.09
2023-01-12T14:02:01.500Z,7.09
2023-01-12T14:03:04.684Z,7.09
2023-01-12T14:04:24.246Z,7.07
2023-01-12T14:05:34.973Z,7.08
2023-01-12T14:06:55.461Z,7.08
2023-01-12T14:08:15.639Z,7.08
2023-01-12T14:09:32.521Z,7.10
2023-01-12T14:10:47.253Z,7.10
2023-01-12T14:11:48.983Z,7.12
2023-01-12T14:13:09.379Z,7.13
2023-01-12T14:14:45.408Z,7.15
2023-01-12T14:16:05.968Z,7.15
2023-01-12T14:17:36.315Z,7.13
2023-01-12T14:18:45.250Z,7.15
2023-01-12T14:19:51.216Z,7.14
2023-01-12T14:20:54.336Z,7.16
2023-01-12T14:21:57.872Z,7.17
2023-01-12T14:23:13.499Z,7.15
2023-01-12T14:24:21.255Z,7.13
2023-01-12T14:25:23.636Z,7.15
2023-01-12T14:26:27.421Z,7.16
2023-01-12T14:27:29.361Z,7.16
2023-01-12T14:28:31.404Z,7.16
2023-01-12T14:29:33.189Z,7.15
2023-01-12T14:30:36.824Z,7.16
2023-01-12T14:31:52.419Z,7.14
2023-01-12T14:32:54.835Z,7.15
2023-01-12T14:33:57.947Z,7.15
2023-01-12T14:34:59.740Z,7.16
2023-01-12T14:36:11.540Z,7.16
2023-01-12T14:37:23.716Z,7.15